Time;durP1;ratioP1;P1;durP2;ratioP2;P2;SDS_P1;SDS_P2;PMS_P1;PMS_P2;Temp;Humidity;BMP_temperature;BMP_pressure;BME280_temperature;BME280_humidity;BME280_pressure;Samples;Min_cycle;Max_cycle;Signal;HPM_P1;HPM_P2
2022/09/05 00:01:43;;;;;;;10.45;4.78;;;;;;;18.39;65.51;100677.72;5046313;28;20508;-59
2022/09/05 00:04:19;;;;;;;6.82;4.25;;;;;;;18.35;65.42;100665.53;5053874;28;20417;-58
2022/09/05 00:06:57;;;;;;;7.35;4.97;;;;;;;18.32;65.94;100671.09;5054270;28;20056;-58
2022/09/05 00:09:47;;;;;;;8.15;4.75;;;;;;;18.30;66.07;100671.44;5053910;28;20056;-58
2022/09/05 00:12:16;;;;;;;5.75;5.15;;;;;;;18.25;66.30;100663.25;5053877;28;20049;-59
2022/09/05 00:14:59;;;;;;;5.20;4.65;;;;;;;18.24;65.98;100665.22;5053306;28;20502;-58
2022/09/05 00:17:38;;;;;;;5.50;5.00;;;;;;;18.21;66.13;100663.16;5053427;28;20053;-58
2022/09/05 00:20:19;;;;;;;7.05;5.60;;;;;;;18.20;66.20;100661.50;5054109;28;20417;-60
2022/09/05 00:22:57;;;;;;;5.40;4.90;;;;;;;18.19;66.25;100670.34;5054283;28;20049;-61
2022/09/05 00:25:56;;;;;;;5.95;4.38;;;;;;;18.17;65.85;100662.25;5053524;28;20057;-60
2022/09/05 00:28:37;;;;;;;6.80;4.70;;;;;;;18.13;66.12;100672.59;5064376;28;20528;-61
2022/09/05 00:31:28;;;;;;;5.10;4.60;;;;;;;18.10;66.39;100678.13;5074005;28;20485;-60
2022/09/05 00:34:07;;;;;;;5.35;4.82;;;;;;;18.05;66.69;100670.75;5054180;28;20087;-61
2022/09/05 00:36:44;;;;;;;5.75;5.13;;;;;;;18.00;67.03;100674.66;5053591;28;20053;-60
2022/09/05 00:39:18;;;;;;;5.53;4.90;;;;;;;17.97;66.45;100678.19;5065904;28;20059;-61
2022/09/05 00:41:49;;;;;;;5.20;4.70;;;;;;;17.93;66.62;100676.47;5072913;28;20063;-60
2022/09/05 00:44:21;;;;;;;5.05;4.55;;;;;;;17.88;66.52;100673.91;5053752;28;20052;-61
2022/09/05 00:46:56;;;;;;;5.00;4.53;;;;;;;17.89;66.26;100672.72;5062165;28;20413;-60
2022/09/05 00:49:30;;;;;;;4.75;4.25;;;;;;;17.88;66.00;100676.72;5053817;28;20049;-60
2022/09/05 00:52:07;;;;;;;5.72;4.90;;;;;;;17.84;66.14;100673.81;5056558;28;20052;-60
2022/09/05 00:55:04;;;;;;;5.18;4.25;;;;;;;17.77;66.48;100674.38;5053169;28;20543;-60
2022/09/05 00:58:01;;;;;;;5.40;4.90;;;;;;;17.70;66.61;100665.75;5052923;28;20056;-58
2022/09/05 01:00:38;;;;;;;5.38;4.53;;;;;;;17.67;66.70;100671.25;5052359;28;20068;-60
2022/09/05 01:03:32;;;;;;;5.50;4.93;;;;;;;17.66;66.77;100670.44;5053147;28;20055;-60
2022/09/05 01:06:16;;;;;;;5.97;5.35;;;;;;;17.61;67.05;100668.69;5031798;28;20050;-60
2022/09/05 01:09:10;;;;;;;6.20;5.60;;;;;;;17.60;67.26;100667.06;5041855;28;20056;-61
2022/09/05 01:12:11;;;;;;;6.15;5.25;;;;;;;17.57;67.42;100669.75;5052891;28;20076;-60
2022/09/05 01:15:05;;;;;;;6.10;5.03;;;;;;;17.53;67.70;100666.84;5039268;28;20053;-59
2022/09/05 01:17:44;;;;;;;7.60;5.28;;;;;;;17.51;67.75;100663.56;5052795;28;20056;-58
2022/09/05 01:20:29;;;;;;;6.75;5.70;;;;;;;17.49;67.30;100671.56;5052945;28;20417;-59
2022/09/05 01:23:43;;;;;;;6.75;5.95;;;;;;;17.48;67.37;100674.72;5033013;28;20064;-59
2022/09/05 01:26:34;;;;;;;5.97;5.47;;;;;;;17.45;67.56;100665.81;5032654;28;20524;-61
2022/09/05 01:29:09;;;;;;;6.15;5.65;;;;;;;17.41;67.83;100670.53;5039356;28;20056;-61
2022/09/05 01:31:45;;;;;;;5.95;5.22;;;;;;;17.39;67.78;100670.06;5052621;28;20057;-61
2022/09/05 01:34:23;;;;;;;5.72;5.20;;;;;;;17.40;67.68;100676.50;5054934;28;20048;-61
2022/09/05 01:37:03;;;;;;;5.95;5.40;;;;;;;17.35;67.82;100671.94;5072530;28;20424;-61
2022/09/05 01:39:41;;;;;;;6.60;6.00;;;;;;;17.32;68.23;100664.19;5064596;28;20049;-61
2022/09/05 01:42:28;;;;;;;6.35;5.40;;;;;;;17.28;68.09;100668.91;5052631;28;20057;-60
2022/09/05 01:45:03;;;;;;;7.40;5.65;;;;;;;17.26;68.40;100665.66;5052082;28;20053;-60
2022/09/05 01:47:50;;;;;;;6.00;5.35;;;;;;;17.23;68.27;100667.16;5052629;28;20060;-60
2022/09/05 01:50:34;;;;;;;6.35;5.50;;;;;;;17.21;68.39;100665.88;5047596;28;20049;-61
2022/09/05 01:53:26;;;;;;;7.32;5.55;;;;;;;17.20;68.20;100650.16;5051443;28;20049;-60
2022/09/05 01:56:21;;;;;;;6.57;5.63;;;;;;;17.18;68.16;100658.97;5052340;28;20060;-59
2022/09/05 01:59:02;;;;;;;5.70;5.20;;;;;;;17.16;68.21;100657.69;5051472;28;20048;-59
2022/09/05 02:01:46;;;;;;;6.38;5.78;;;;;;;17.14;68.48;100662.84;5052123;28;20163;-61
2022/09/05 02:04:35;;;;;;;6.45;5.80;;;;;;;17.09;68.60;100663.06;5057876;28;20131;-60
2022/09/05 02:07:13;;;;;;;6.03;5.53;;;;;;;17.08;68.70;100658.63;5061696;28;20497;-60
2022/09/05 02:10:12;;;;;;;6.78;6.13;;;;;;;17.03;68.75;100652.06;5069791;28;20052;-60
2022/09/05 02:12:47;;;;;;;6.00;5.40;;;;;;;16.99;68.97;100659.56;5052164;28;20056;-59
2022/09/05 02:15:19;;;;;;;6.55;5.95;;;;;;;16.98;68.83;100659.91;5052137;28;20148;-57
2022/09/05 02:17:52;;;;;;;6.75;6.10;;;;;;;16.98;68.89;100657.09;5052034;28;20413;-59
2022/09/05 02:20:29;;;;;;;6.03;5.43;;;;;;;16.94;68.74;100664.63;5056787;28;20068;-60
2022/09/05 02:23:05;;;;;;;7.40;6.57;;;;;;;16.91;68.78;100657.72;5071327;28;20061;-60
2022/09/05 02:25:46;;;;;;;7.88;5.80;;;;;;;16.91;68.68;100668.16;5067835;28;20076;-60
2022/09/05 02:28:20;;;;;;;6.43;5.85;;;;;;;16.85;68.94;100670.38;5052101;28;20045;-60
2022/09/05 02:30:56;;;;;;;6.90;6.13;;;;;;;16.81;68.92;100669.44;5051834;28;20041;-59
2022/09/05 02:33:33;;;;;;;6.20;5.70;;;;;;;16.77;68.99;100662.84;5051399;28;20056;-60
2022/09/05 02:36:08;;;;;;;6.22;5.65;;;;;;;16.73;68.85;100675.97;5051804;28;20379;-60
2022/09/05 02:38:45;;;;;;;6.50;5.90;;;;;;;16.73;68.91;100667.53;5051601;28;20045;-60
2022/09/05 02:41:26;;;;;;;7.45;6.13;;;;;;;16.72;68.86;100671.53;5051939;28;20045;-59
2022/09/05 02:44:03;;;;;;;6.68;5.80;;;;;;;16.73;68.81;100661.91;5052007;28;20064;-60
2022/09/05 02:46:37;;;;;;;6.63;5.93;;;;;;;16.69;69.02;100667.41;5051215;28;20401;-60
2022/09/05 02:49:11;;;;;;;6.53;5.82;;;;;;;16.66;69.14;100659.69;5065244;28;20059;-60
2022/09/05 02:51:46;;;;;;;15.75;6.97;;;;;;;16.62;69.54;100673.59;5066274;28;20048;-60
2022/09/05 02:54:18;;;;;;;8.20;7.03;;;;;;;16.60;69.97;100670.31;5057999;28;20048;-60
2022/09/05 02:57:15;;;;;;;7.43;6.75;;;;;;;16.59;70.08;100665.88;5049014;28;20041;-59
2022/09/05 02:59:59;;;;;;;7.45;6.82;;;;;;;16.56;70.08;100669.38;5051039;28;20068;-58
2022/09/05 03:02:35;;;;;;;7.63;6.95;;;;;;;16.56;70.01;100671.38;5055040;28;20049;-59
2022/09/05 03:05:15;;;;;;;7.22;6.60;;;;;;;16.55;69.87;100662.13;5061247;28;20049;-59
2022/09/05 03:08:33;;;;;;;7.68;6.97;;;;;;;16.52;69.93;100665.63;5053378;28;20061;-59
2022/09/05 03:11:37;;;;;;;6.68;6.07;;;;;;;16.48;69.98;100672.31;5051739;28;20052;-58
2022/09/05 03:14:49;;;;;;;7.43;6.72;;;;;;;16.44;70.14;100664.59;5055388;28;20063;-59
2022/09/05 03:17:56;;;;;;;7.43;6.72;;;;;;;16.40;70.12;100669.28;4976197;28;20154;-58
2022/09/05 03:20:55;;;;;;;7.22;6.53;;;;;;;16.35;70.42;100666.66;5054890;28;20053;-59
2022/09/05 03:23:50;;;;;;;7.90;7.20;;;;;;;16.33;70.39;100666.19;5042687;28;20049;-59
2022/09/05 03:26:56;;;;;;;8.10;7.30;;;;;;;16.33;70.90;100665.38;5054613;28;20061;-59
2022/09/05 03:29:56;;;;;;;7.45;6.43;;;;;;;16.31;70.68;100664.91;5055012;28;20053;-59
2022/09/05 03:32:50;;;;;;;8.02;6.15;;;;;;;16.33;70.27;100659.75;5054560;28;20049;-59
2022/09/05 03:36:07;;;;;;;7.80;7.07;;;;;;;16.28;70.37;100665.63;5053829;28;20379;-59
2022/09/05 03:39:18;;;;;;;8.07;7.38;;;;;;;16.23;70.75;100666.63;5052973;28;20060;-59
2022/09/05 03:42:01;;;;;;;9.25;8.45;;;;;;;16.21;70.86;100664.19;5054420;28;20053;-59
2022/09/05 03:44:49;;;;;;;8.55;7.75;;;;;;;16.22;70.73;100668.63;5054396;28;20049;-59
2022/09/05 03:47:42;;;;;;;8.73;7.80;;;;;;;16.22;70.68;100665.81;5054915;28;20497;-58
2022/09/05 03:50:25;;;;;;;10.65;7.03;;;;;;;16.24;70.72;100666.31;5053705;28;20056;-59
2022/09/05 03:53:24;;;;;;;9.55;7.07;;;;;;;16.20;70.97;100668.16;5053877;28;20504;-59
2022/09/05 03:56:12;;;;;;;8.00;7.20;;;;;;;16.17;71.01;100668.06;5054260;28;20053;-59
2022/09/05 03:58:56;;;;;;;10.02;7.65;;;;;;;16.15;70.91;100665.59;5054132;28;20470;-59
2022/09/05 04:01:28;;;;;;;8.10;7.30;;;;;;;16.15;70.98;100671.22;5054321;28;20132;-59
2022/09/05 04:04:02;;;;;;;8.93;7.40;;;;;;;16.15;70.93;100671.22;5069474;28;20056;-59
2022/09/05 04:06:47;;;;;;;7.68;6.97;;;;;;;16.14;70.99;100663.94;5053821;28;20068;-59
2022/09/05 04:09:25;;;;;;;8.15;7.45;;;;;;;16.13;70.98;100670.72;5054123;28;20529;-59
2022/09/05 04:12:01;;;;;;;8.00;7.00;;;;;;;16.15;70.92;100678.81;5053781;28;20051;-58
2022/09/05 04:14:43;;;;;;;8.60;7.20;;;;;;;16.14;70.75;100675.16;5053839;28;20060;-59
2022/09/05 04:17:23;;;;;;;7.85;7.10;;;;;;;16.14;70.76;100679.97;5060774;28;20052;-59
2022/09/05 04:19:55;;;;;;;8.40;7.47;;;;;;;16.12;70.88;100677.50;5066096;28;20041;-59
2022/09/05 04:22:31;;;;;;;8.25;7.55;;;;;;;16.08;71.00;100679.38;5054199;28;20060;-60
2022/09/05 04:25:07;;;;;;;8.55;7.75;;;;;;;16.08;71.20;100681.38;5053463;28;20057;-60
2022/09/05 04:27:49;;;;;;;10.95;7.38;;;;;;;16.07;71.13;100677.75;5053703;28;20045;-60
2022/09/05 04:30:30;;;;;;;8.60;7.65;;;;;;;16.05;71.23;100688.50;5053086;28;20421;-59
2022/09/05 04:33:03;;;;;;;11.55;7.78;;;;;;;16.06;70.90;100681.69;5034238;28;20414;-59
2022/09/05 04:35:38;;;;;;;10.43;8.15;;;;;;;16.05;71.03;100674.47;5042189;28;20057;-59
2022/09/05 04:38:11;;;;;;;10.02;7.00;;;;;;;16.06;70.84;100672.47;5054133;28;20060;-60
2022/09/05 04:40:51;;;;;;;9.13;8.23;;;;;;;16.05;70.93;100674.47;5053044;28;20049;-59
2022/09/05 04:43:30;;;;;;;10.48;9.35;;;;;;;16.03;71.14;100673.97;5053721;28;20064;-59
2022/09/05 04:46:08;;;;;;;10.45;8.70;;;;;;;16.04;71.24;100678.41;5053363;28;20382;-59
2022/09/05 04:48:42;;;;;;;10.27;8.48;;;;;;;16.02;71.26;100687.22;5053899;28;20057;-59
2022/09/05 04:51:23;;;;;;;8.95;8.13;;;;;;;16.01;71.24;100685.56;5054101;28;20410;-59
2022/09/05 04:54:26;;;;;;;11.57;7.85;;;;;;;15.99;71.24;100692.69;5053780;28;20052;-59
2022/09/05 04:57:00;;;;;;;8.32;7.53;;;;;;;15.97;70.92;100687.41;5052875;28;20421;-59
2022/09/05 04:59:36;;;;;;;8.40;7.60;;;;;;;16.02;70.91;100689.19;5055464;28;20077;-59
2022/09/05 05:02:12;;;;;;;8.57;7.60;;;;;;;15.99;70.94;100693.50;5058416;28;20056;-59
2022/09/05 05:04:41;;;;;;;8.57;7.82;;;;;;;15.99;70.88;100689.88;5052530;28;20052;-60
2022/09/05 05:07:18;;;;;;;8.93;8.02;;;;;;;16.00;70.81;100695.16;5050048;28;20060;-59
2022/09/05 05:09:49;;;;;;;9.60;8.48;;;;;;;16.02;70.74;100697.59;5052795;28;20057;-59
2022/09/05 05:12:26;;;;;;;9.73;7.95;;;;;;;16.06;70.82;100701.38;5053372;28;20051;-59
2022/09/05 05:15:05;;;;;;;11.52;7.63;;;;;;;16.10;70.67;100701.50;5053008;28;20056;-59
2022/09/05 05:17:37;;;;;;;8.27;7.43;;;;;;;16.14;70.82;100699.66;5052864;28;20053;-59
2022/09/05 05:20:15;;;;;;;10.82;7.82;;;;;;;16.19;70.72;100694.63;5050051;28;20063;-60
2022/09/05 05:22:56;;;;;;;10.73;7.70;;;;;;;16.21;70.97;100699.88;5049896;28;20048;-59
2022/09/05 05:25:26;;;;;;;9.23;7.93;;;;;;;16.24;71.03;100705.66;5048233;28;20056;-59
2022/09/05 05:28:04;;;;;;;10.32;9.23;;;;;;;16.21;71.54;100705.50;5050457;28;20045;-52
2022/09/05 05:30:33;;;;;;;11.45;8.65;;;;;;;15.88;73.17;100711.97;5050810;28;20052;-49
2022/09/05 05:33:10;;;;;;;16.77;11.77;;;;;;;15.93;73.36;100708.94;5050283;28;20140;-53
2022/09/05 05:35:38;;;;;;;11.77;10.25;;;;;;;16.02;73.04;100714.47;5051439;28;20474;-50
2022/09/05 05:38:17;;;;;;;10.57;8.77;;;;;;;16.03;73.10;100702.88;5050295;28;20060;-59
2022/09/05 05:40:50;;;;;;;9.52;7.82;;;;;;;16.23;72.40;100701.22;5048893;28;20048;-60
2022/09/05 05:43:22;;;;;;;9.27;7.97;;;;;;;16.38;71.83;100708.16;5052206;28;20048;-59
2022/09/05 05:45:58;;;;;;;12.02;7.75;;;;;;;16.52;71.22;100705.00;5052964;28;20113;-59
2022/09/05 05:48:32;;;;;;;10.85;7.90;;;;;;;16.63;70.92;100703.38;5050545;28;20053;-60
2022/09/05 05:51:16;;;;;;;7.45;6.70;;;;;;;16.75;70.25;100704.56;5051430;28;20048;-60
2022/09/05 05:53:52;;;;;;;8.48;7.60;;;;;;;16.84;69.59;100699.69;5059426;28;20052;-60
2022/09/05 05:56:47;;;;;;;9.02;7.63;;;;;;;16.93;69.18;100699.56;5054683;28;20413;-59
2022/09/05 05:59:41;;;;;;;11.63;8.25;;;;;;;17.00;68.73;100697.78;5051760;28;20053;-59
2022/09/05 06:02:54;;;;;;;9.30;8.40;;;;;;;17.10;68.59;100704.94;5051647;28;20053;-60
2022/09/05 06:05:33;;;;;;;11.63;8.60;;;;;;;17.20;68.54;100707.28;5050510;28;20052;-60
2022/09/05 06:08:24;;;;;;;10.75;9.15;;;;;;;17.29;68.31;100715.59;5057813;28;20059;-59
2022/09/05 06:11:17;;;;;;;12.88;9.82;;;;;;;17.34;68.63;100709.72;5061092;28;20465;-60
2022/09/05 06:14:39;;;;;;;12.75;9.85;;;;;;;17.48;68.43;100719.78;5062616;28;20429;-59
2022/09/05 06:17:34;;;;;;;12.07;10.88;;;;;;;17.57;68.35;100715.63;5036653;28;20056;-59
2022/09/05 06:20:24;;;;;;;12.40;10.15;;;;;;;17.67;68.10;100711.53;5053232;28;20049;-60
2022/09/05 06:23:26;;;;;;;9.45;8.40;;;;;;;17.80;67.99;100715.91;5053591;28;20053;-60
2022/09/05 06:26:21;;;;;;;10.13;8.68;;;;;;;17.89;67.59;100710.19;5048980;28;20049;-59
2022/09/05 06:28:56;;;;;;;12.23;8.90;;;;;;;18.02;67.38;100716.59;5051588;28;20049;-59
2022/09/05 06:31:41;;;;;;;9.80;8.55;;;;;;;18.16;67.01;100711.34;5061150;28;20048;-59
2022/09/05 06:34:34;;;;;;;11.65;8.80;;;;;;;18.31;66.65;100712.56;5040203;28;20446;-59
2022/09/05 06:37:10;;;;;;;9.82;8.23;;;;;;;18.46;66.55;100713.78;5049579;28;20064;-60
2022/09/05 06:39:57;;;;;;;10.32;8.13;;;;;;;18.56;66.52;100718.03;5049128;28;20053;-59
2022/09/05 06:42:35;;;;;;;13.35;9.20;;;;;;;18.67;66.47;100719.97;5055015;28;20045;-59
2022/09/05 06:45:25;;;;;;;10.20;8.95;;;;;;;18.80;66.25;100719.91;5050107;28;20057;-59
2022/09/05 06:48:03;;;;;;;10.18;8.52;;;;;;;18.94;65.97;100725.09;5052598;28;20494;-59
2022/09/05 06:51:08;;;;;;;11.70;9.38;;;;;;;19.13;65.35;100730.81;5055861;28;20397;-60
2022/09/05 06:54:03;;;;;;;10.48;9.20;;;;;;;19.30;64.74;100723.13;5054221;28;20049;-60
2022/09/05 06:56:56;;;;;;;9.70;7.97;;;;;;;19.46;64.17;100718.25;5054046;28;20064;-59
2022/09/05 06:59:54;;;;;;;9.30;8.40;;;;;;;19.63;63.51;100725.47;5062936;28;20373;-59
2022/09/05 07:02:33;;;;;;;9.47;7.80;;;;;;;19.83;63.29;100721.50;5051658;28;20045;-60
2022/09/05 07:05:09;;;;;;;7.97;7.07;;;;;;;20.05;62.85;100724.78;5051367;28;20131;-60
2022/09/05 07:07:43;;;;;;;7.07;6.47;;;;;;;20.25;62.42;100715.09;5052690;28;20053;-61
2022/09/05 07:10:21;;;;;;;7.47;6.47;;;;;;;20.44;62.08;100719.06;5039038;28;20064;-60
2022/09/05 07:12:53;;;;;;;8.20;6.30;;;;;;;20.64;61.39;100717.88;5053332;28;20053;-59
2022/09/05 07:15:35;;;;;;;7.40;6.47;;;;;;;20.93;60.70;100715.50;5053254;28;20056;-60
2022/09/05 07:18:12;;;;;;;7.38;6.47;;;;;;;21.47;59.44;100728.50;5053235;28;20057;-59
2022/09/05 07:20:49;;;;;;;9.90;5.35;;;;;;;22.52;56.30;100709.97;5056031;28;20044;-60
2022/09/05 07:23:30;;;;;;;5.88;4.63;;;;;;;23.61;53.07;100716.09;5055717;28;20045;-59
2022/09/05 07:25:59;;;;;;;7.82;4.55;;;;;;;24.77;50.27;100715.28;5060146;28;20060;-60
2022/09/05 07:28:27;;;;;;;13.35;5.10;;;;;;;25.75;48.47;100711.91;5058993;28;20063;-60
2022/09/05 07:31:00;;;;;;;7.85;4.55;;;;;;;26.84;45.66;100710.09;5056931;28;20049;-59
2022/09/05 07:33:30;;;;;;;5.45;4.50;;;;;;;28.11;42.82;100702.63;5052376;28;20072;-61
2022/09/05 07:36:05;;;;;;;6.90;3.92;;;;;;;29.30;40.28;100707.34;5053190;28;20166;-60
2022/09/05 07:38:35;;;;;;;7.53;4.68;;;;;;;30.48;38.14;100709.84;5053974;28;20052;-60
2022/09/05 07:41:13;;;;;;;6.40;3.88;;;;;;;31.54;35.98;100705.53;5049011;28;20413;-60
2022/09/05 07:43:45;;;;;;;5.88;4.03;;;;;;;32.62;33.73;100699.41;5054124;28;20057;-60
2022/09/05 07:46:15;;;;;;;7.70;3.90;;;;;;;33.61;32.73;100689.84;5051263;28;20060;-60
2022/09/05 07:48:47;;;;;;;6.72;3.90;;;;;;;34.43;30.42;100695.34;5065385;28;20056;-60
2022/09/05 07:51:23;;;;;;;6.60;4.18;;;;;;;35.15;29.21;100696.09;5052848;28;20080;-60
2022/09/05 07:53:53;;;;;;;7.57;4.18;;;;;;;35.81;28.63;100694.03;5053844;28;20051;-60
2022/09/05 07:56:43;;;;;;;10.32;5.50;;;;;;;36.57;26.82;100692.84;5051107;28;20057;-60
2022/09/05 07:59:13;;;;;;;4.78;3.53;;;;;;;37.22;26.62;100688.81;5034209;28;20054;-60
2022/09/05 08:01:44;;;;;;;5.95;3.50;;;;;;;37.70;26.10;100694.56;5055889;28;20048;-60
2022/09/05 08:04:23;;;;;;;3.28;2.97;;;;;;;38.44;25.16;100699.56;5050488;28;20422;-60
2022/09/05 08:06:53;;;;;;;7.22;3.33;;;;;;;39.07;24.19;100705.88;5053245;28;20048;-60
2022/09/05 08:09:26;;;;;;;7.32;3.30;;;;;;;39.78;23.75;100699.84;5050395;28;20056;-60
2022/09/05 08:12:00;;;;;;;8.30;3.17;;;;;;;40.37;23.49;100696.47;5052819;28;20069;-61
2022/09/05 08:14:42;;;;;;;4.82;3.00;;;;;;;40.84;22.76;100692.56;5051950;28;20041;-60
2022/09/05 08:17:17;;;;;;;3.80;2.63;;;;;;;41.05;22.12;100693.19;5050749;28;20048;-60
2022/09/05 08:20:06;;;;;;;3.92;2.60;;;;;;;41.78;21.06;100687.66;5051512;28;20044;-61
2022/09/05 08:22:43;;;;;;;5.80;2.50;;;;;;;42.66;19.98;100681.56;5044289;28;20056;-60
2022/09/05 08:25:16;;;;;;;3.73;2.10;;;;;;;43.52;18.96;100679.97;5049489;28;20638;-61
2022/09/05 08:28:02;;;;;;;4.65;2.30;;;;;;;44.01;18.21;100673.50;5053288;28;20847;-61
2022/09/05 08:30:37;;;;;;;3.75;2.15;;;;;;;44.69;17.58;100683.34;5049740;28;20080;-61
2022/09/05 08:33:11;;;;;;;4.28;2.00;;;;;;;45.45;16.39;100670.97;5052674;28;20053;-60
2022/09/05 08:35:43;;;;;;;3.42;1.80;;;;;;;45.69;16.30;100673.03;5052736;28;20053;-61
2022/09/05 08:38:14;;;;;;;3.25;2.00;;;;;;;46.36;15.69;100679.97;5052223;28;20057;-58
2022/09/05 08:40:51;;;;;;;3.75;2.17;;;;;;;46.14;15.58;100673.13;5056112;28;20158;-59
2022/09/05 08:43:33;;;;;;;3.97;2.10;;;;;;;45.85;15.68;100671.19;5052910;28;20052;-58
2022/09/05 08:46:04;;;;;;;3.40;1.85;;;;;;;46.60;15.44;100669.38;5040032;28;20056;-58
2022/09/05 08:48:46;;;;;;;3.97;1.70;;;;;;;47.01;14.70;100665.88;5051381;28;20527;-58
2022/09/05 08:51:28;;;;;;;2.97;2.13;;;;;;;47.61;14.71;100655.50;5052411;28;20052;-58
2022/09/05 08:54:13;;;;;;;3.80;1.60;;;;;;;48.46;13.55;100665.97;5050852;28;20049;-60
2022/09/05 08:56:53;;;;;;;2.40;1.70;;;;;;;48.80;13.60;100661.31;5060353;28;20053;-58
2022/09/05 08:59:32;;;;;;;4.32;1.92;;;;;;;49.21;13.18;100654.44;5050787;28;20155;-58
2022/09/05 09:02:32;;;;;;;2.75;1.45;;;;;;;49.30;12.75;100661.97;5050973;28;20057;-58
2022/09/05 09:05:10;;;;;;;3.17;1.83;;;;;;;49.40;12.59;100647.44;5050223;28;20049;-60
2022/09/05 09:07:43;;;;;;;2.50;1.80;;;;;;;50.02;12.07;100654.28;5049582;28;20052;-59
2022/09/05 09:10:29;;;;;;;3.55;2.00;;;;;;;50.39;12.01;100652.75;5058323;28;20063;-58
2022/09/05 09:13:20;;;;;;;3.08;1.80;;;;;;;50.98;11.55;100645.75;5051670;28;20053;-58
2022/09/05 09:16:03;;;;;;;2.42;1.70;;;;;;;51.21;11.18;100641.94;5036174;28;20505;-58
2022/09/05 09:18:41;;;;;;;2.65;1.90;;;;;;;51.47;11.08;100638.44;5052054;28;20540;-58
2022/09/05 09:21:34;;;;;;;2.92;1.90;;;;;;;51.97;10.62;100629.59;5049636;28;20057;-58
2022/09/05 09:24:15;;;;;;;2.10;1.77;;;;;;;52.22;10.38;100628.03;5045938;28;20519;-58
2022/09/05 09:26:51;;;;;;;2.70;1.60;;;;;;;51.70;10.67;100634.53;5050933;28;20056;-58
2022/09/05 09:29:19;;;;;;;3.25;1.60;;;;;;;51.39;10.72;100633.91;5050614;28;20060;-58
2022/09/05 09:31:59;;;;;;;2.10;1.60;;;;;;;51.78;10.28;100629.31;5051208;28;20504;-58
2022/09/05 09:34:37;;;;;;;2.38;1.40;;;;;;;52.27;9.89;100627.00;5048448;28;20060;-59
2022/09/05 09:37:24;;;;;;;3.00;2.20;;;;;;;52.38;10.30;100620.56;5053365;28;20053;-58
2022/09/05 09:40:29;;;;;;;3.25;1.80;;;;;;;52.08;10.52;100619.41;5053278;28;20060;-58
2022/09/05 09:43:05;;;;;;;3.85;1.90;;;;;;;49.71;11.84;100624.63;5033382;28;20056;-58
2022/09/05 09:45:55;;;;;;;2.55;1.60;;;;;;;47.68;12.88;100622.28;5052085;28;20053;-60
2022/09/05 09:49:01;;;;;;;2.45;1.15;;;;;;;46.00;14.14;100623.56;5051590;28;20049;-58
2022/09/05 09:51:59;;;;;;;2.83;1.38;;;;;;;44.11;15.48;100625.66;5045606;28;20060;-60
2022/09/05 09:54:58;;;;;;;3.55;1.73;;;;;;;42.64;16.70;100619.78;5050959;28;20072;-60
2022/09/05 09:57:52;;;;;;;3.42;1.33;;;;;;;40.90;17.79;100623.28;5049131;28;20049;-60
2022/09/05 10:00:22;;;;;;;2.40;1.63;;;;;;;39.90;19.32;100625.75;5029793;28;20053;-59
2022/09/05 10:03:19;;;;;;;2.80;1.52;;;;;;;39.06;19.92;100627.69;5051566;28;20426;-60
2022/09/05 10:06:37;;;;;;;3.83;1.40;;;;;;;38.13;21.09;100625.28;5043899;28;20056;-60
2022/09/05 10:09:16;;;;;;;3.03;1.65;;;;;;;37.26;21.91;100631.31;5043058;28;20334;-60
2022/09/05 10:12:08;;;;;;;4.20;1.80;;;;;;;37.40;21.76;100623.91;5050921;28;20075;-59
2022/09/05 10:15:03;;;;;;;3.05;1.60;;;;;;;37.62;21.33;100620.66;5050216;28;20045;-60
2022/09/05 10:18:02;;;;;;;3.40;1.80;;;;;;;39.92;19.66;100628.13;5049757;28;20076;-59
2022/09/05 10:20:42;;;;;;;2.60;1.50;;;;;;;41.91;17.33;100622.75;5054510;28;20119;-59
2022/09/05 10:23:37;;;;;;;1.58;1.38;;;;;;;43.78;16.01;100612.84;5067750;28;20060;-60
2022/09/05 10:26:43;;;;;;;3.38;1.60;;;;;;;45.39;14.26;100612.19;5051233;28;20153;-60
2022/09/05 10:29:20;;;;;;;1.90;1.40;;;;;;;46.69;13.40;100610.78;5058368;28;20490;-60
2022/09/05 10:31:56;;;;;;;1.92;1.20;;;;;;;47.77;12.51;100609.97;5040085;28;20052;-60
2022/09/05 10:34:25;;;;;;;2.78;1.55;;;;;;;48.19;12.52;100603.28;5044551;28;20041;-60
2022/09/05 10:36:58;;;;;;;5.10;1.88;;;;;;;48.07;12.41;100605.75;5050988;28;20049;-60
2022/09/05 10:39:30;;;;;;;1.90;1.50;;;;;;;48.96;11.95;100597.91;5047899;28;20076;-59
2022/09/05 10:42:02;;;;;;;1.50;1.40;;;;;;;49.35;11.35;100599.69;5053121;28;20049;-60
2022/09/05 10:44:39;;;;;;;2.58;1.60;;;;;;;50.08;10.77;100595.66;5049466;28;20056;-60
2022/09/05 10:47:19;;;;;;;3.03;1.75;;;;;;;50.80;10.00;100590.63;5050018;28;21196;-59
2022/09/05 10:49:50;;;;;;;3.15;1.02;;;;;;;48.72;11.75;100585.19;5046162;28;20049;-60
2022/09/05 10:52:24;;;;;;;1.90;1.17;;;;;;;47.27;12.56;100584.63;5049461;28;20044;-59
2022/09/05 10:55:07;;;;;;;2.53;1.25;;;;;;;45.86;13.71;100581.50;5044987;28;20053;-59
2022/09/05 10:57:41;;;;;;;2.08;1.23;;;;;;;44.38;14.69;100578.94;5037119;28;20450;-60
2022/09/05 11:00:32;;;;;;;3.90;1.63;;;;;;;44.55;14.53;100579.56;5048847;28;20490;-59
2022/09/05 11:03:00;;;;;;;2.00;1.60;;;;;;;45.94;13.82;100579.47;5049581;28;20060;-59
2022/09/05 11:05:33;;;;;;;2.55;1.67;;;;;;;47.05;13.06;100577.06;5043642;28;20386;-59
2022/09/05 11:08:08;;;;;;;1.83;1.33;;;;;;;47.02;12.74;100581.16;5048611;28;20053;-60
2022/09/05 11:10:49;;;;;;;2.53;1.45;;;;;;;46.38;12.67;100571.97;5039343;28;20267;-59
2022/09/05 11:13:34;;;;;;;3.25;1.02;;;;;;;45.02;13.68;100568.84;5046130;28;20056;-60
2022/09/05 11:16:16;;;;;;;1.30;1.00;;;;;;;42.39;15.40;100566.84;5049358;28;20056;-59
2022/09/05 11:18:57;;;;;;;2.13;1.30;;;;;;;41.67;16.55;100573.56;5047351;28;20061;-60
2022/09/05 11:21:53;;;;;;;2.65;1.52;;;;;;;41.76;15.92;100568.22;5056885;28;20049;-59
2022/09/05 11:24:33;;;;;;;1.80;1.30;;;;;;;43.27;15.26;100565.47;5051130;28;20049;-59
2022/09/05 11:27:06;;;;;;;1.60;1.48;;;;;;;44.41;14.40;100562.38;5054343;28;20056;-58
2022/09/05 11:29:39;;;;;;;2.85;1.50;;;;;;;45.04;13.92;100560.28;5054872;28;20067;-59
2022/09/05 11:32:31;;;;;;;2.08;1.60;;;;;;;44.09;14.11;100557.09;5050381;28;20068;-59
2022/09/05 11:35:26;;;;;;;1.65;1.30;;;;;;;44.34;14.13;100555.75;5049358;28;20056;-60
2022/09/05 11:38:32;;;;;;;1.55;1.40;;;;;;;44.21;13.90;100551.91;4997612;28;20061;-59
2022/09/05 11:41:27;;;;;;;2.30;1.40;;;;;;;44.73;13.75;100545.72;5048274;28;20049;-59
2022/09/05 11:44:13;;;;;;;1.92;1.33;;;;;;;45.30;13.15;100545.75;5054605;28;20048;-59
2022/09/05 11:46:46;;;;;;;2.28;1.48;;;;;;;45.58;12.90;100541.53;5044707;28;20064;-60
2022/09/05 11:49:51;;;;;;;1.70;1.40;;;;;;;46.47;12.32;100538.34;5053045;28;20056;-61
2022/09/05 11:53:01;;;;;;;1.55;1.40;;;;;;;47.23;11.96;100531.91;5041168;28;20049;-59
2022/09/05 11:55:54;;;;;;;2.38;1.23;;;;;;;46.99;12.04;100530.00;5042199;28;20486;-59
2022/09/05 11:58:57;;;;;;;1.63;1.23;;;;;;;47.91;11.62;100524.31;5049851;28;20053;-59
2022/09/05 12:01:34;;;;;;;1.85;1.55;;;;;;;48.61;11.35;100522.59;5062534;28;20064;-59
2022/09/05 12:04:18;;;;;;;1.70;1.50;;;;;;;48.54;11.24;100518.25;5052971;28;20053;-59
2022/09/05 12:07:22;;;;;;;2.25;1.30;;;;;;;49.34;10.71;100511.44;5052633;28;20049;-59
2022/09/05 12:10:03;;;;;;;2.83;1.40;;;;;;;49.10;10.96;100518.69;5045125;28;20055;-60
2022/09/05 12:12:35;;;;;;;4.22;1.88;;;;;;;48.30;11.00;100516.50;5052263;28;20073;-59
2022/09/05 12:15:25;;;;;;;1.70;1.35;;;;;;;48.83;10.91;100524.09;5054902;28;20052;-59
2022/09/05 12:18:09;;;;;;;2.28;1.30;;;;;;;47.22;11.85;100523.63;5054724;28;20060;-59
2022/09/05 12:20:44;;;;;;;1.95;1.23;;;;;;;47.42;11.70;100528.75;5044360;28;20053;-58
2022/09/05 12:23:25;;;;;;;1.70;1.30;;;;;;;46.68;12.07;100520.75;5047842;28;20053;-59
2022/09/05 12:26:00;;;;;;;1.95;1.50;;;;;;;46.83;12.13;100510.53;5051306;28;20059;-59
2022/09/05 12:28:36;;;;;;;1.83;1.48;;;;;;;46.49;12.34;100517.16;5049993;28;20049;-58
2022/09/05 12:31:14;;;;;;;3.25;1.63;;;;;;;45.68;12.58;100515.47;5052545;28;20049;-58
2022/09/05 12:33:47;;;;;;;2.33;1.80;;;;;;;46.32;12.20;100514.53;5050167;28;20453;-58
2022/09/05 12:36:19;;;;;;;3.28;1.52;;;;;;;45.96;12.98;100518.66;5050384;28;20053;-58